createdAt,value
2017-08-30T00:00:00.261Z,94723.39
2017-08-30T00:02:28.634Z,94723.31
2017-08-30T00:04:56.989Z,94714.42
2017-08-30T00:07:25.336Z,94727.64
2017-08-30T00:09:53.694Z,94718.48
2017-08-30T00:12:22.032Z,94716.52
2017-08-30T00:14:50.394Z,94706.84
2017-08-30T00:17:18.732Z,94705.75
2017-08-30T00:19:47.067Z,94707.16
2017-08-30T00:22:15.430Z,94697.13
2017-08-30T00:24:55.440Z,94695.92
2017-08-30T00:27:23.782Z,94693.89
2017-08-30T00:29:52.226Z,94694.08
2017-08-30T00:32:20.573Z,94687.86
2017-08-30T00:34:48.918Z,94689.63
2017-08-30T00:37:17.259Z,94687.36
2017-08-30T00:39:45.597Z,94681.17
2017-08-30T00:42:13.939Z,94676.62
2017-08-30T00:44:42.305Z,94675.33
2017-08-30T00:47:10.646Z,94673.58
2017-08-30T00:49:38.991Z,94669.44
2017-08-30T00:52:07.335Z,94665.52
2017-08-30T00:54:35.709Z,94668.17
2017-08-30T00:57:04.122Z,94661.89
2017-08-30T00:59:32.519Z,94660.85
2017-08-30T01:02:00.854Z,94661.12
2017-08-30T01:04:29.402Z,94658.53
2017-08-30T01:06:57.738Z,94648.80
2017-08-30T01:09:26.076Z,94654.91
2017-08-30T01:11:54.477Z,94647.77
2017-08-30T01:14:22.862Z,94649.33
2017-08-30T01:16:51.250Z,94646.91
2017-08-30T01:19:19.654Z,94639.62
2017-08-30T01:21:48.042Z,94634.24
2017-08-30T01:24:16.382Z,94623.94
2017-08-30T01:26:44.724Z,94619.97
2017-08-30T01:29:13.109Z,94628.63
2017-08-30T01:31:41.450Z,94628.73
2017-08-30T01:34:09.823Z,94621.30
2017-08-30T01:36:38.182Z,94627.55
2017-08-30T01:39:06.588Z,94628.04
2017-08-30T01:41:34.972Z,94628.29
2017-08-30T01:44:03.391Z,94623.72
2017-08-30T01:46:31.754Z,94619.72
2017-08-30T01:49:00.110Z,94616.95
2017-08-30T01:51:28.536Z,94622.91
2017-08-30T01:53:56.895Z,94604.95
2017-08-30T01:56:25.275Z,94597.63
2017-08-30T01:58:53.702Z,94598.98
2017-08-30T02:01:22.056Z,94606.88
2017-08-30T02:03:50.490Z,94602.95
2017-08-30T02:06:18.915Z,94601.77
2017-08-30T02:08:47.244Z,94600.73
2017-08-30T02:11:15.675Z,94599.98
2017-08-30T02:13:44.040Z,94602.34
2017-08-30T02:16:12.458Z,94605.77
2017-08-30T02:18:41.246Z,94607.74
2017-08-30T02:21:09.632Z,94603.72
2017-08-30T02:23:37.990Z,94592.80
2017-08-30T02:26:06.422Z,94595.67
2017-08-30T02:28:34.834Z,94586.91
2017-08-30T02:31:03.183Z,94584.55
2017-08-30T02:33:31.535Z,94576.41
2017-08-30T02:35:59.912Z,94574.31
2017-08-30T02:38:28.278Z,94581.03
2017-08-30T02:40:56.634Z,94578.88
2017-08-30T02:43:25.008Z,94575.80
2017-08-30T02:45:53.450Z,94576.34
2017-08-30T02:48:21.807Z,94564.23
2017-08-30T02:50:50.142Z,94566.78
2017-08-30T02:53:18.539Z,94563.35
2017-08-30T02:55:46.915Z,94557.75
2017-08-30T02:58:15.259Z,94559.98
2017-08-30T03:00:43.719Z,94557.24
2017-08-30T03:03:12.092Z,94555.47
2017-08-30T03:05:40.438Z,94556.18
2017-08-30T03:08:08.825Z,94553.55
2017-08-30T03:10:37.267Z,94540.88
2017-08-30T03:13:05.682Z,94539.05
2017-08-30T03:15:34.034Z,94537.66
2017-08-30T03:18:02.451Z,94536.35
2017-08-30T03:20:30.844Z,94537.69
2017-08-30T03:22:59.194Z,94536.72
2017-08-30T03:25:27.612Z,94539.99
2017-08-30T03:27:55.959Z,94537.34
2017-08-30T03:30:24.401Z,94536.13
2017-08-30T03:32:52.886Z,94538.84
2017-08-30T03:35:21.332Z,94530.31
2017-08-30T03:37:49.779Z,94532.82
2017-08-30T03:40:18.113Z,94535.60
2017-08-30T03:42:46.553Z,94533.50
2017-08-30T03:45:14.898Z,94531.14
2017-08-30T03:47:43.246Z,94523.97
2017-08-30T03:50:11.634Z,94520.42
2017-08-30T03:52:40.051Z,94522.75
2017-08-30T03:55:08.410Z,94517.42
2017-08-30T03:57:36.797Z,94518.03
2017-08-30T04:00:05.130Z,94519.77
2017-08-30T04:02:33.490Z,94514.15
2017-08-30T04:05:01.869Z,94503.06
2017-08-30T04:07:30.214Z,94516.38
2017-08-30T04:09:58.654Z,94515.27
2017-08-30T04:12:27.000Z,94517.91
2017-08-30T04:14:55.443Z,94519.14
2017-08-30T04:17:23.826Z,94513.83
2017-08-30T04:19:52.166Z,94521.77
2017-08-30T04:22:20.514Z,94526.89
2017-08-30T04:24:48.859Z,94525.09
2017-08-30T04:27:17.221Z,94517.95
2017-08-30T04:29:45.595Z,94527.73
2017-08-30T04:32:13.930Z,94519.05
2017-08-30T04:34:42.358Z,94522.00
2017-08-30T04:37:10.758Z,94513.98
2017-08-30T04:39:39.094Z,94518.22
2017-08-30T04:42:07.545Z,94502.45
2017-08-30T04:44:35.931Z,94510.80
2017-08-30T04:47:04.278Z,94510.34
2017-08-30T04:49:32.615Z,94506.32
2017-08-30T04:52:00.960Z,94513.28
2017-08-30T04:54:29.463Z,94513.42
2017-08-30T04:56:57.834Z,94516.84
2017-08-30T04:59:26.277Z,94517.27
2017-08-30T05:01:54.623Z,94511.91
2017-08-30T05:04:22.990Z,94512.89
2017-08-30T05:06:51.356Z,94507.84
2017-08-30T05:09:19.693Z,94510.91
2017-08-30T05:11:48.133Z,94510.30
2017-08-30T05:14:16.473Z,94508.92
2017-08-30T05:16:44.919Z,94508.62
2017-08-30T05:19:13.259Z,94509.45
2017-08-30T05:21:41.703Z,94507.47
2017-08-30T05:24:10.094Z,94509.02
2017-08-30T05:26:38.437Z,94502.05
2017-08-30T05:29:06.871Z,94495.76
2017-08-30T05:31:35.296Z,94491.83
2017-08-30T05:34:03.702Z,94492.28
2017-08-30T05:36:32.061Z,94485.73
2017-08-30T05:39:00.454Z,94487.56
2017-08-30T05:41:28.835Z,94488.20
2017-08-30T05:43:57.223Z,94486.02
2017-08-30T05:46:25.557Z,94487.31
2017-08-30T05:48:53.906Z,94485.73
2017-08-30T05:51:22.386Z,94477.43
2017-08-30T05:53:50.725Z,94473.53
2017-08-30T05:56:19.069Z,94465.53
2017-08-30T05:58:47.426Z,94458.22
2017-08-30T06:01:15.765Z,94460.36
2017-08-30T06:03:44.143Z,94463.45
2017-08-30T06:06:12.486Z,94458.73
2017-08-30T06:08:40.929Z,94449.33
2017-08-30T06:11:09.346Z,94452.19
2017-08-30T06:13:37.719Z,94450.22
2017-08-30T06:16:06.050Z,94455.00
2017-08-30T06:18:34.391Z,94453.89
2017-08-30T06:21:02.782Z,94449.58
2017-08-30T06:23:31.122Z,94448.23
2017-08-30T06:25:59.466Z,94457.90
2017-08-30T06:28:27.806Z,94453.83
2017-08-30T06:30:56.250Z,94453.06
2017-08-30T06:33:24.626Z,94452.90
2017-08-30T06:35:53.063Z,94448.42
2017-08-30T06:38:27.262Z,94446.87
2017-08-30T06:40:55.650Z,94448.00
2017-08-30T06:43:24.005Z,94445.75
2017-08-30T06:45:52.413Z,94444.24
2017-08-30T06:48:20.754Z,94442.22
2017-08-30T06:50:49.148Z,94436.50
2017-08-30T06:53:17.505Z,94434.62
2017-08-30T06:55:45.845Z,94436.73
2017-08-30T06:58:14.186Z,94436.70
2017-08-30T07:00:42.564Z,94431.47
2017-08-30T07:03:10.965Z,94438.81
2017-08-30T07:05:39.343Z,94438.04
2017-08-30T07:08:07.756Z,94432.41
2017-08-30T07:10:36.121Z,94432.19
2017-08-30T07:13:04.539Z,94431.70
2017-08-30T07:15:33.026Z,94431.71
2017-08-30T07:18:01.371Z,94439.05
2017-08-30T07:20:30.530Z,94439.02
2017-08-30T07:22:58.927Z,94440.03
2017-08-30T07:25:27.317Z,94449.47
2017-08-30T07:27:55.695Z,94446.63
2017-08-30T07:30:24.091Z,94449.06
2017-08-30T07:32:52.426Z,94452.25
2017-08-30T07:35:20.767Z,94450.63
2017-08-30T07:37:49.102Z,94444.31
2017-08-30T07:40:17.461Z,94437.84
2017-08-30T07:42:45.992Z,94447.05
2017-08-30T07:45:14.447Z,94447.94
2017-08-30T07:47:42.842Z,94453.25
2017-08-30T07:50:11.238Z,94457.11
2017-08-30T07:52:39.621Z,94456.67
2017-08-30T07:55:07.958Z,94454.92
2017-08-30T07:57:36.321Z,94450.57
2017-08-30T08:00:04.702Z,94452.92
2017-08-30T08:02:33.179Z,94450.73
2017-08-30T08:05:01.990Z,94448.19
2017-08-30T08:07:30.333Z,94460.88
2017-08-30T08:09:58.723Z,94456.56
2017-08-30T08:12:27.081Z,94458.26
2017-08-30T08:14:55.410Z,94451.78
2017-08-30T08:17:23.830Z,94453.63
2017-08-30T08:19:52.229Z,94448.41
2017-08-30T08:22:20.595Z,94449.88
2017-08-30T08:24:49.015Z,94454.95
2017-08-30T08:27:17.386Z,94453.28
2017-08-30T08:29:45.826Z,94459.84
2017-08-30T08:32:14.194Z,94456.64
2017-08-30T08:34:42.554Z,94452.07
2017-08-30T08:37:10.970Z,94450.09
2017-08-30T08:39:39.399Z,94450.41
2017-08-30T08:42:07.731Z,94449.45
2017-08-30T08:44:36.555Z,94446.09
2017-08-30T08:47:04.901Z,94441.09
2017-08-30T08:49:34.374Z,94443.11
2017-08-30T08:52:03.154Z,94442.65
2017-08-30T08:54:31.750Z,94444.81
2017-08-30T08:57:00.090Z,94449.43
2017-08-30T08:59:28.460Z,94457.14
2017-08-30T09:01:56.798Z,94459.05
2017-08-30T09:04:25.240Z,94459.15
2017-08-30T09:06:53.606Z,94456.95
2017-08-30T09:09:21.956Z,94455.92
2017-08-30T09:11:50.326Z,94456.17
2017-08-30T09:14:18.659Z,94454.11
2017-08-30T09:16:47.011Z,94457.40
2017-08-30T09:19:15.370Z,94443.18
2017-08-30T09:21:43.737Z,94442.91
2017-08-30T09:24:12.094Z,94427.64
2017-08-30T09:26:40.547Z,94435.12
2017-08-30T09:29:08.930Z,94434.72
2017-08-30T09:31:37.276Z,94438.04
2017-08-30T09:34:05.694Z,94432.83
2017-08-30T09:36:34.034Z,94421.94
2017-08-30T09:39:02.374Z,94424.92
2017-08-30T09:41:30.730Z,94418.41
2017-08-30T09:43:59.169Z,94420.00
2017-08-30T09:46:27.531Z,94420.88
2017-08-30T09:48:55.915Z,94420.63
2017-08-30T09:51:24.260Z,94417.42
2017-08-30T09:53:52.593Z,94425.55
2017-08-30T09:56:21.039Z,94421.70
2017-08-30T09:58:49.427Z,94427.00
2017-08-30T10:01:17.766Z,94428.02
2017-08-30T10:03:46.320Z,94428.09
2017-08-30T10:06:14.710Z,94431.06
2017-08-30T10:08:43.088Z,94427.34
2017-08-30T10:11:11.674Z,94423.56
2017-08-30T10:13:40.053Z,94431.30
2017-08-30T10:16:08.474Z,94426.45
2017-08-30T10:18:36.842Z,94433.48
2017-08-30T10:21:05.257Z,94429.31
2017-08-30T10:23:33.714Z,94416.22
2017-08-30T10:26:02.083Z,94417.12
2017-08-30T10:28:30.421Z,94418.16
2017-08-30T10:30:58.764Z,94420.48
2017-08-30T10:33:27.226Z,94418.04
2017-08-30T10:35:55.597Z,94410.83
2017-08-30T10:38:23.938Z,94405.52
2017-08-30T10:40:52.378Z,94397.77
2017-08-30T10:43:20.725Z,94395.41
2017-08-30T10:45:49.161Z,94392.09
2017-08-30T10:48:17.563Z,94393.33
2017-08-30T10:50:45.974Z,94393.36
2017-08-30T10:53:14.353Z,94389.61
2017-08-30T10:55:42.746Z,94383.51
2017-08-30T10:58:11.081Z,94385.16
2017-08-30T11:00:39.442Z,94387.55
2017-08-30T11:03:07.781Z,94386.53
2017-08-30T11:05:36.113Z,94386.53
2017-08-30T11:08:04.491Z,94380.21
2017-08-30T11:10:32.870Z,94377.00
2017-08-30T11:13:01.275Z,94380.41
2017-08-30T11:15:29.641Z,94375.69
2017-08-30T11:17:58.010Z,94368.84
2017-08-30T11:20:26.378Z,94381.97
2017-08-30T11:22:54.737Z,94373.63
2017-08-30T11:25:23.118Z,94374.63
2017-08-30T11:27:52.035Z,94364.02
2017-08-30T11:30:20.382Z,94362.63
2017-08-30T11:32:48.735Z,94352.66
2017-08-30T11:35:17.206Z,94354.19
2017-08-30T11:37:45.593Z,94354.03
2017-08-30T11:40:13.945Z,94349.59
2017-08-30T11:42:42.388Z,94347.78
2017-08-30T11:45:10.734Z,94347.56
2017-08-30T11:47:39.124Z,94345.38
2017-08-30T11:50:07.475Z,94347.75
2017-08-30T11:52:35.842Z,94348.64
2017-08-30T11:55:04.235Z,94343.50
2017-08-30T11:57:32.570Z,94340.20
2017-08-30T12:00:01.014Z,94343.47
2017-08-30T12:02:29.757Z,94336.94
2017-08-30T12:04:58.123Z,94332.16
2017-08-30T12:07:26.465Z,94330.70
2017-08-30T12:09:54.845Z,94331.02
2017-08-30T12:12:23.259Z,94330.44
2017-08-30T12:14:51.719Z,94321.73
2017-08-30T12:17:20.092Z,94327.64
2017-08-30T12:19:48.483Z,94335.22
2017-08-30T12:22:16.841Z,94321.20
2017-08-30T12:24:45.189Z,94327.30
2017-08-30T12:27:13.531Z,94313.95
2017-08-30T12:29:41.927Z,94315.36
2017-08-30T12:32:10.311Z,94326.83
2017-08-30T12:34:38.654Z,94331.10
2017-08-30T12:37:12.749Z,94333.81
2017-08-30T12:39:41.093Z,94334.52
2017-08-30T12:42:09.545Z,94335.41
2017-08-30T12:44:37.886Z,94338.55
2017-08-30T12:47:06.239Z,94341.66
2017-08-30T12:49:34.678Z,94341.94
2017-08-30T12:52:03.169Z,94334.16
2017-08-30T12:54:31.558Z,94325.63
2017-08-30T12:56:59.910Z,94320.25
2017-08-30T12:59:28.350Z,94325.31
2017-08-30T13:01:56.742Z,94335.07
2017-08-30T13:04:25.111Z,94335.41
2017-08-30T13:06:53.495Z,94339.31
2017-08-30T13:09:21.907Z,94338.86
2017-08-30T13:11:50.256Z,94353.80
2017-08-30T13:14:18.594Z,94338.16
2017-08-30T13:16:46.942Z,94336.34
2017-08-30T13:19:15.294Z,94341.33
2017-08-30T13:21:43.668Z,94348.48
2017-08-30T13:24:12.066Z,94340.11
2017-08-30T13:26:40.454Z,94337.12
2017-08-30T13:29:09.279Z,94357.91
2017-08-30T13:31:37.689Z,94352.61
2017-08-30T13:34:06.030Z,94351.97
2017-08-30T13:36:34.514Z,94348.19
2017-08-30T13:39:02.898Z,94340.69
2017-08-30T13:41:31.277Z,94338.27
2017-08-30T13:43:59.627Z,94340.35
2017-08-30T13:46:27.995Z,94347.61
2017-08-30T13:48:56.394Z,94345.13
2017-08-30T13:51:24.738Z,94339.75
2017-08-30T13:53:53.268Z,94336.94
2017-08-30T13:56:21.638Z,94333.18
2017-08-30T13:58:50.058Z,94337.95
2017-08-30T14:01:18.647Z,94346.68
2017-08-30T14:03:46.985Z,94344.28
2017-08-30T14:06:15.334Z,94338.84
2017-08-30T14:08:43.968Z,94330.45
2017-08-30T14:11:12.385Z,94325.89
2017-08-30T14:13:41.147Z,94318.92
2017-08-30T14:16:09.566Z,94311.59
2017-08-30T14:18:38.003Z,94308.36
2017-08-30T14:21:06.397Z,94302.94
2017-08-30T14:23:34.742Z,94299.55
2017-08-30T14:26:03.142Z,94299.55
2017-08-30T14:28:31.572Z,94296.78
2017-08-30T14:30:59.917Z,94295.17
2017-08-30T14:33:28.257Z,94288.95
2017-08-30T14:35:56.718Z,94286.47
2017-08-30T14:38:25.127Z,94280.62
2017-08-30T14:40:53.472Z,94280.94
2017-08-30T14:43:21.847Z,94277.83
2017-08-30T14:45:50.402Z,94267.12
2017-08-30T14:48:18.762Z,94262.59
2017-08-30T14:50:47.110Z,94268.61
2017-08-30T14:53:15.455Z,94261.34
2017-08-30T14:55:43.874Z,94260.74
2017-08-30T14:58:12.257Z,94263.97
2017-08-30T15:00:40.622Z,94269.02
2017-08-30T15:03:08.961Z,94266.28
2017-08-30T15:05:37.340Z,94265.39
2017-08-30T15:08:05.687Z,94270.51
2017-08-30T15:10:34.119Z,94272.15
2017-08-30T15:13:03.338Z,94285.59
2017-08-30T15:15:31.857Z,94277.95
2017-08-30T15:18:00.194Z,94271.90
2017-08-30T15:20:28.545Z,94269.95
2017-08-30T15:22:56.959Z,94276.20
2017-08-30T15:25:25.385Z,94273.19
2017-08-30T15:27:53.730Z,94266.63
2017-08-30T15:30:22.166Z,94277.27
2017-08-30T15:32:50.514Z,94280.12
2017-08-30T15:35:18.882Z,94289.47
2017-08-30T15:37:47.235Z,94295.87
2017-08-30T15:40:15.599Z,94289.48
2017-08-30T15:42:44.033Z,94285.42
2017-08-30T15:45:12.386Z,94286.80
2017-08-30T15:47:40.748Z,94286.70
2017-08-30T15:50:09.206Z,94286.86
2017-08-30T15:52:38.779Z,94283.95
2017-08-30T15:55:08.075Z,94295.74
2017-08-30T15:57:37.151Z,94283.84
2017-08-30T16:00:06.001Z,94275.64
2017-08-30T16:02:34.740Z,94275.86
2017-08-30T16:05:03.150Z,94286.63
2017-08-30T16:07:31.525Z,94283.32
2017-08-30T16:09:59.914Z,94275.13
2017-08-30T16:12:28.341Z,94272.19
2017-08-30T16:14:56.669Z,94280.09
2017-08-30T16:17:25.013Z,94289.63
2017-08-30T16:19:53.389Z,94278.33
2017-08-30T16:22:21.782Z,94285.12
2017-08-30T16:24:50.166Z,94272.31
2017-08-30T16:27:18.622Z,94262.80
2017-08-30T16:29:46.961Z,94277.66
2017-08-30T16:32:15.329Z,94275.45
2017-08-30T16:34:43.679Z,94267.13
2017-08-30T16:37:12.049Z,94272.55
2017-08-30T16:39:40.402Z,94274.38
2017-08-30T16:42:08.783Z,94269.83
2017-08-30T16:44:37.425Z,94270.09
2017-08-30T16:47:05.786Z,94276.63
2017-08-30T16:49:34.208Z,94273.52
2017-08-30T16:52:02.559Z,94277.39
2017-08-30T16:54:30.963Z,94279.63
2017-08-30T16:56:59.312Z,94280.78
2017-08-30T16:59:27.667Z,94287.30
2017-08-30T17:01:56.041Z,94270.62
2017-08-30T17:04:24.402Z,94274.44
2017-08-30T17:06:52.775Z,94270.28
2017-08-30T17:09:21.119Z,94265.24
2017-08-30T17:11:49.490Z,94265.55
2017-08-30T17:14:17.921Z,94265.66
2017-08-30T17:16:46.278Z,94266.20
2017-08-30T17:19:14.639Z,94273.71
2017-08-30T17:21:43.096Z,94266.60
2017-08-30T17:24:11.438Z,94265.36
2017-08-30T17:26:39.792Z,94258.59
2017-08-30T17:29:08.152Z,94256.45
2017-08-30T17:31:36.644Z,94255.73
2017-08-30T17:34:05.033Z,94254.60
2017-08-30T17:36:33.531Z,94270.11
2017-08-30T17:39:01.872Z,94254.91
2017-08-30T17:41:30.309Z,94252.92
2017-08-30T17:43:58.687Z,94256.35
2017-08-30T17:46:27.816Z,94247.13
2017-08-30T17:48:56.202Z,94249.95
2017-08-30T17:51:24.548Z,94239.92
2017-08-30T17:53:52.922Z,94239.49
2017-08-30T17:56:21.275Z,94233.11
2017-08-30T17:58:49.764Z,94230.75
2017-08-30T18:01:18.107Z,94237.73
2017-08-30T18:03:46.464Z,94240.38
2017-08-30T18:06:14.838Z,94233.13
2017-08-30T18:08:43.187Z,94237.83
2017-08-30T18:11:11.615Z,94250.93
2017-08-30T18:13:39.985Z,94259.80
2017-08-30T18:16:08.398Z,94260.97
2017-08-30T18:18:36.758Z,94262.73
2017-08-30T18:21:05.170Z,94264.33
2017-08-30T18:23:34.436Z,94264.67
2017-08-30T18:26:03.716Z,94263.67
2017-08-30T18:28:32.095Z,94249.28
2017-08-30T18:31:00.498Z,94254.24
2017-08-30T18:33:28.875Z,94253.36
2017-08-30T18:35:57.215Z,94255.67
2017-08-30T18:38:25.566Z,94259.28
2017-08-30T18:40:54.046Z,94259.80
2017-08-30T18:43:22.473Z,94258.33
2017-08-30T18:45:50.865Z,94255.53
2017-08-30T18:48:19.255Z,94260.89
2017-08-30T18:50:47.598Z,94250.88
2017-08-30T18:53:15.942Z,94250.47
2017-08-30T18:55:44.294Z,94247.52
2017-08-30T18:58:12.702Z,94241.75
2017-08-30T19:00:41.074Z,94235.41
2017-08-30T19:03:09.570Z,94248.19
2017-08-30T19:05:37.919Z,94239.97
2017-08-30T19:08:06.263Z,94248.26
2017-08-30T19:10:34.626Z,94252.80
2017-08-30T19:13:02.973Z,94256.30
2017-08-30T19:15:31.421Z,94262.23
2017-08-30T19:17:59.810Z,94262.55
2017-08-30T19:20:28.190Z,94264.88
2017-08-30T19:22:56.575Z,94257.50
2017-08-30T19:25:25.505Z,94257.97
2017-08-30T19:27:54.273Z,94265.23
2017-08-30T19:30:22.700Z,94259.05
2017-08-30T19:32:51.185Z,94259.80
2017-08-30T19:35:19.540Z,94258.88
2017-08-30T19:37:47.974Z,94259.97
2017-08-30T19:40:16.362Z,94259.14
2017-08-30T19:42:44.706Z,94258.44
2017-08-30T19:45:13.079Z,94259.63
2017-08-30T19:47:41.428Z,94247.47
2017-08-30T19:50:09.838Z,94243.57
2017-08-30T19:52:38.203Z,94241.56
2017-08-30T19:55:06.542Z,94255.78
2017-08-30T19:57:34.931Z,94262.86
2017-08-30T20:00:03.500Z,94261.13
2017-08-30T20:02:31.886Z,94266.14
2017-08-30T20:05:00.307Z,94265.09
2017-08-30T20:07:28.652Z,94262.97
2017-08-30T20:09:57.063Z,94271.75
2017-08-30T20:12:25.441Z,94280.41
2017-08-30T20:14:53.847Z,94288.84
2017-08-30T20:17:22.202Z,94289.26
2017-08-30T20:19:50.628Z,94282.89
2017-08-30T20:22:19.125Z,94289.09
2017-08-30T20:24:47.510Z,94284.70
2017-08-30T20:27:15.856Z,94286.71
2017-08-30T20:29:44.275Z,94296.22
2017-08-30T20:32:12.690Z,94305.96
2017-08-30T20:34:41.083Z,94308.17
2017-08-30T20:37:09.431Z,94327.77
2017-08-30T20:39:37.782Z,94318.06
2017-08-30T20:42:06.160Z,94316.08
2017-08-30T20:44:34.538Z,94325.86
2017-08-30T20:47:02.930Z,94321.91
2017-08-30T20:49:31.278Z,94318.12
2017-08-30T20:51:59.729Z,94315.37
2017-08-30T20:54:28.213Z,94307.56
2017-08-30T20:56:56.594Z,94311.45
2017-08-30T20:59:25.003Z,94304.78
2017-08-30T21:01:53.383Z,94304.31
2017-08-30T21:04:21.845Z,94302.25
2017-08-30T21:06:50.262Z,94297.53
2017-08-30T21:09:18.615Z,94295.02
2017-08-30T21:11:47.050Z,94292.44
2017-08-30T21:14:15.446Z,94302.05
2017-08-30T21:16:44.033Z,94292.23
2017-08-30T21:19:12.434Z,94302.81
2017-08-30T21:21:40.784Z,94312.66
2017-08-30T21:24:09.130Z,94300.91
2017-08-30T21:26:37.508Z,94318.20
2017-08-30T21:29:05.882Z,94312.67
2017-08-30T21:31:34.419Z,94320.30
2017-08-30T21:34:02.873Z,94333.98
2017-08-30T21:36:31.232Z,94335.05
2017-08-30T21:38:59.658Z,94333.88
2017-08-30T21:41:27.994Z,94333.17
2017-08-30T21:43:56.354Z,94330.54
2017-08-30T21:46:24.687Z,94321.87
2017-08-30T21:48:53.027Z,94324.48
2017-08-30T21:51:21.411Z,94323.65
2017-08-30T21:53:49.794Z,94319.86
2017-08-30T21:56:18.198Z,94324.66
2017-08-30T21:58:46.562Z,94321.45
2017-08-30T22:01:14.911Z,94322.98
2017-08-30T22:03:43.246Z,94327.13
2017-08-30T22:06:11.609Z,94329.34
2017-08-30T22:08:40.194Z,94324.17
2017-08-30T22:11:08.550Z,94311.27
2017-08-30T22:13:36.941Z,94310.02
2017-08-30T22:16:05.319Z,94308.31
2017-08-30T22:18:33.670Z,94315.97
2017-08-30T22:21:02.116Z,94328.54
2017-08-30T22:23:30.502Z,94311.73
2017-08-30T22:25:58.893Z,94327.66
2017-08-30T22:28:27.291Z,94334.59
2017-08-30T22:30:55.678Z,94339.52
2017-08-30T22:33:24.066Z,94337.96
2017-08-30T22:35:52.409Z,94335.88
2017-08-30T22:38:20.812Z,94337.70
2017-08-30T22:40:49.139Z,94329.82
2017-08-30T22:43:17.516Z,94323.95
2017-08-30T22:45:45.914Z,94320.86
2017-08-30T22:48:14.315Z,94310.47
2017-08-30T22:50:42.711Z,94316.28
2017-08-30T22:53:11.042Z,94315.95
2017-08-30T22:55:39.382Z,94316.73
2017-08-30T22:58:07.734Z,94323.53
2017-08-30T23:00:36.112Z,94318.29
2017-08-30T23:03:04.560Z,94317.11
2017-08-30T23:05:32.984Z,94319.06
2017-08-30T23:08:02.257Z,94320.47
2017-08-30T23:10:30.658Z,94317.66
2017-08-30T23:12:58.998Z,94317.23
2017-08-30T23:15:27.448Z,94313.88
2017-08-30T23:17:55.774Z,94316.86
2017-08-30T23:20:24.118Z,94305.45
2017-08-30T23:22:52.451Z,94310.36
2017-08-30T23:25:20.905Z,94318.10
2017-08-30T23:27:49.251Z,94318.88
2017-08-30T23:30:17.687Z,94321.39
2017-08-30T23:32:46.078Z,94318.48
2017-08-30T23:35:14.474Z,94329.33
2017-08-30T23:37:42.872Z,94323.93
2017-08-30T23:40:11.224Z,94311.63
2017-08-30T23:42:39.638Z,94305.56
2017-08-30T23:45:08.034Z,94304.23
2017-08-30T23:47:36.432Z,94313.20
2017-08-30T23:50:04.779Z,94323.02
2017-08-30T23:52:33.210Z,94322.63
2017-08-30T23:55:01.555Z,94319.62
2017-08-30T23:57:29.990Z,94317.03
2017-08-30T23:59:58.382Z,94323.98
